Time;durP1;ratioP1;P1;durP2;ratioP2;P2;SDS_P1;SDS_P2;PMS_P1;PMS_P2;Temp;Humidity;BMP_temperature;BMP_pressure;BME280_temperature;BME280_humidity;BME280_pressure;Samples;Min_cycle;Max_cycle;Signal;HPM_P1;HPM_P2
2022/12/21 00:02:13;;;;;;;0.38;0.30;;;;;;;18.01;80.51;98705.25;7394842;19;20034;-56
2022/12/21 00:04:39;;;;;;;0.45;0.45;;;;;;;18.09;80.68;98704.00;7393433;19;20579;-55
2022/12/21 00:07:05;;;;;;;2.53;1.27;;;;;;;17.91;81.07;98713.44;7393793;19;20099;-55
2022/12/21 00:09:33;;;;;;;0.10;0.10;;;;;;;17.92;81.36;98720.63;7391218;19;20356;-56
2022/12/21 00:12:00;;;;;;;0.50;0.50;;;;;;;17.83;81.57;98707.03;7394348;19;20010;-55
2022/12/21 00:14:26;;;;;;;0.17;0.03;;;;;;;17.81;82.16;98709.63;7391598;19;20353;-56
2022/12/21 00:16:52;;;;;;;0.35;0.28;;;;;;;17.94;82.03;98712.34;7390954;19;20017;-56
2022/12/21 00:19:18;;;;;;;0.63;0.63;;;;;;;18.00;81.26;98698.09;7390848;19;20380;-56
2022/12/21 00:21:44;;;;;;;0.10;0.00;;;;;;;17.98;81.40;98701.47;7392769;19;20007;-56
2022/12/21 00:24:10;;;;;;;7.80;0.60;;;;;;;17.73;82.41;98680.69;7390746;19;20035;-55
2022/12/21 00:26:37;;;;;;;0.35;0.35;;;;;;;17.79;82.36;98678.47;7395292;19;20337;-55
2022/12/21 00:29:04;;;;;;;0.45;0.45;;;;;;;17.86;82.60;98666.50;7393293;19;20022;-56
2022/12/21 00:31:36;;;;;;;0.50;0.50;;;;;;;17.92;81.65;98675.53;7392454;19;20376;-56
2022/12/21 00:34:02;;;;;;;0.57;0.20;;;;;;;18.16;80.73;98665.91;7390813;19;20011;-55
2022/12/21 00:36:31;;;;;;;0.10;0.10;;;;;;;18.03;80.43;98663.19;7392647;19;20021;-55
2022/12/21 00:38:58;;;;;;;1.75;0.45;;;;;;;17.84;81.16;98663.47;7392609;19;20375;-55
2022/12/21 00:41:26;;;;;;;0.10;0.10;;;;;;;18.01;80.30;98657.38;7392318;19;20013;-55
2022/12/21 00:43:54;;;;;;;0.10;0.10;;;;;;;18.11;79.63;98653.47;7390129;19;20017;-56
2022/12/21 00:46:23;;;;;;;20.52;3.03;;;;;;;18.17;79.38;98651.25;7391140;19;20014;-55
2022/12/21 00:48:50;;;;;;;0.00;0.00;;;;;;;18.21;79.13;98662.16;7391553;19;20007;-55
2022/12/21 00:51:20;;;;;;;0.10;0.10;;;;;;;18.31;79.63;98659.56;7389988;19;20011;-55
2022/12/21 00:53:47;;;;;;;0.15;0.15;;;;;;;18.30;79.41;98655.25;7395431;19;20031;-55
2022/12/21 00:56:14;;;;;;;0.30;0.20;;;;;;;18.37;78.86;98651.69;7391591;19;20010;-55
2022/12/21 00:58:41;;;;;;;0.38;0.38;;;;;;;18.31;78.85;98649.03;7391156;19;20025;-55
2022/12/21 01:01:13;;;;;;;0.10;0.10;;;;;;;18.36;78.64;98636.09;7391167;19;20010;-55
2022/12/21 01:03:40;;;;;;;0.25;0.25;;;;;;;18.44;78.60;98645.31;7393006;19;20021;-55
2022/12/21 01:06:06;;;;;;;0.60;0.60;;;;;;;18.59;78.36;98651.03;7391731;19;20435;-55
2022/12/21 01:08:32;;;;;;;0.50;0.50;;;;;;;18.59;78.17;98651.03;7389946;19;20036;-55
2022/12/21 01:11:01;;;;;;;0.90;0.90;;;;;;;18.54;78.40;98654.78;7389070;19;20017;-55
2022/12/21 01:13:29;;;;;;;0.43;0.43;;;;;;;18.56;78.46;98641.63;7396220;19;20021;-55
2022/12/21 01:15:55;;;;;;;1.40;1.00;;;;;;;18.63;78.31;98635.25;7392561;19;20014;-55
2022/12/21 01:18:22;;;;;;;0.30;0.15;;;;;;;18.82;77.53;98632.09;7391248;19;20010;-55
2022/12/21 01:20:51;;;;;;;0.32;0.15;;;;;;;18.62;78.15;98628.13;7392496;19;20038;-55
2022/12/21 01:23:21;;;;;;;0.10;0.00;;;;;;;18.62;77.76;98616.09;7392828;19;20408;-55
2022/12/21 01:25:48;;;;;;;0.10;0.10;;;;;;;18.57;78.11;98614.94;7391922;19;20010;-55
2022/12/21 01:28:16;;;;;;;0.50;0.38;;;;;;;18.53;77.67;98620.22;7390426;19;20007;-55
2022/12/21 01:30:42;;;;;;;0.55;0.55;;;;;;;18.64;77.33;98607.81;7390321;19;20003;-55
2022/12/21 01:33:17;;;;;;;0.25;0.25;;;;;;;18.66;77.44;98614.41;7392341;19;20017;-55
2022/12/21 01:35:45;;;;;;;2.83;0.20;;;;;;;18.58;77.64;98622.09;7391483;19;20010;-55
2022/12/21 01:38:12;;;;;;;0.20;0.10;;;;;;;18.61;77.00;98625.84;7388714;19;20022;-55
2022/12/21 01:40:38;;;;;;;12.95;0.88;;;;;;;18.76;77.06;98625.88;7390789;19;20030;-55
2022/12/21 01:43:18;;;;;;;0.50;0.50;;;;;;;18.75;76.92;98624.41;7391509;19;20472;-55
2022/12/21 01:45:50;;;;;;;1.10;0.75;;;;;;;18.63;77.28;98626.03;7388548;19;20014;-55
2022/12/21 01:48:17;;;;;;;0.93;0.75;;;;;;;18.76;77.19;98628.69;7388810;19;20077;-55
2022/12/21 01:50:54;;;;;;;21.20;0.73;;;;;;;18.88;76.62;98627.78;7388211;19;20131;-55
2022/12/21 01:53:23;;;;;;;1.55;0.95;;;;;;;18.72;77.01;98631.91;7391316;19;20017;-55
2022/12/21 01:55:52;;;;;;;0.25;0.20;;;;;;;18.79;77.00;98631.16;7387807;19;20010;-55
2022/12/21 01:58:22;;;;;;;0.20;0.10;;;;;;;18.82;76.42;98629.28;7389471;19;20340;-55
2022/12/21 02:00:48;;;;;;;11.55;1.38;;;;;;;19.03;75.48;98626.31;7388320;19;20324;-55
2022/12/21 02:03:19;;;;;;;0.88;0.88;;;;;;;19.05;75.62;98634.94;7391028;19;20459;-56
2022/12/21 02:05:51;;;;;;;0.85;0.65;;;;;;;18.81;75.99;98639.06;7387990;19;20006;-55
2022/12/21 02:08:17;;;;;;;2.05;0.65;;;;;;;18.56;76.33;98652.19;7389427;19;20455;-55
2022/12/21 02:10:46;;;;;;;0.17;0.17;;;;;;;18.72;76.11;98636.78;7386620;19;20007;-55
2022/12/21 02:13:13;;;;;;;0.68;0.68;;;;;;;18.51;76.97;98645.41;7390958;19;20018;-55
2022/12/21 02:16:00;;;;;;;0.80;0.22;;;;;;;18.30;77.69;98646.78;7387688;19;20015;-55
2022/12/21 02:18:57;;;;;;;7.68;1.17;;;;;;;18.20;78.32;98652.19;7386829;19;20018;-55
2022/12/21 02:21:28;;;;;;;3.65;0.88;;;;;;;18.49;77.64;98648.03;7389184;19;20014;-55
2022/12/21 02:24:32;;;;;;;0.70;0.40;;;;;;;18.66;77.49;98634.16;7388311;19;20014;-55
2022/12/21 02:27:07;;;;;;;0.10;0.10;;;;;;;18.76;76.58;98626.66;7389746;19;20155;-55
2022/12/21 02:29:51;;;;;;;1.60;0.68;;;;;;;18.77;76.36;98627.41;7389629;19;20020;-55
2022/12/21 02:32:33;;;;;;;0.10;0.10;;;;;;;18.91;76.03;98628.72;7389592;19;20486;-55
2022/12/21 02:35:12;;;;;;;3.60;0.65;;;;;;;18.72;75.64;98614.22;7388494;19;20010;-55
2022/12/21 02:37:58;;;;;;;0.85;0.50;;;;;;;18.67;75.91;98630.00;7386961;19;20070;-55
2022/12/21 02:40:33;;;;;;;0.28;0.20;;;;;;;18.65;75.85;98627.00;7386713;19;20094;-55
2022/12/21 02:46:13;;;;;;;1.52;0.75;;;;;;;18.12;76.92;98615.53;7394349;19;20724;-55
2022/12/21 02:48:49;;;;;;;3.33;0.95;;;;;;;18.37;76.82;98606.59;7392895;19;20024;-55
2022/12/21 02:51:25;;;;;;;1.38;0.77;;;;;;;18.31;76.99;98608.81;7395624;19;20011;-55
2022/12/21 02:53:53;;;;;;;0.90;0.40;;;;;;;18.51;76.46;98602.34;7396828;19;20465;-55
2022/12/21 02:56:20;;;;;;;0.10;0.10;;;;;;;18.47;76.25;98599.16;7395963;19;20014;-55
2022/12/21 02:58:47;;;;;;;0.20;0.20;;;;;;;18.44;76.20;98597.41;7394466;19;20459;-55
2022/12/21 03:01:24;;;;;;;1.17;0.52;;;;;;;18.42;76.18;98592.34;7395250;19;20015;-56
2022/12/21 03:03:50;;;;;;;3.80;0.95;;;;;;;18.59;76.19;98603.09;7395585;19;20018;-54
2022/12/21 03:06:43;;;;;;;10.65;1.23;;;;;;;18.94;75.59;98588.09;7396618;19;20393;-55
2022/12/21 03:09:41;;;;;;;0.20;0.20;;;;;;;18.86;75.52;98590.19;7397527;19;20027;-55
2022/12/21 03:12:47;;;;;;;0.20;0.10;;;;;;;18.73;75.44;98593.91;7396647;19;20020;-55
2022/12/21 03:15:19;;;;;;;0.32;0.32;;;;;;;18.63;75.53;98578.88;7395550;19;20031;-55
2022/12/21 03:18:34;;;;;;;0.10;0.10;;;;;;;18.58;75.47;98587.50;7398475;19;20034;-55
2022/12/21 03:21:08;;;;;;;2.75;0.32;;;;;;;18.68;75.15;98594.88;7397776;19;20017;-55
2022/12/21 03:23:40;;;;;;;0.13;0.13;;;;;;;18.49;74.98;98591.63;7403792;19;20455;-55
2022/12/21 03:26:18;;;;;;;1.35;1.25;;;;;;;18.26;76.15;98590.78;7400657;19;20018;-55
2022/12/21 03:28:48;;;;;;;1.13;0.40;;;;;;;18.27;76.15;98588.72;7400508;19;20024;-55
2022/12/21 03:31:20;;;;;;;1.40;0.45;;;;;;;17.95;77.48;98589.91;7400304;19;20347;-55
2022/12/21 03:33:58;;;;;;;2.65;0.60;;;;;;;17.99;77.56;98601.59;7398430;19;20010;-55
2022/12/21 03:37:02;;;;;;;0.10;0.10;;;;;;;18.01;77.82;98595.38;7396973;19;20015;-55
2022/12/21 03:39:30;;;;;;;0.35;0.30;;;;;;;18.09;77.73;98585.66;7393934;19;20010;-55
2022/12/21 03:42:05;;;;;;;0.68;0.30;;;;;;;18.28;77.19;98576.88;7395676;19;20546;-55
2022/12/21 03:44:38;;;;;;;11.02;0.82;;;;;;;18.26;77.06;98575.94;7394675;19;20355;-55
2022/12/21 03:47:17;;;;;;;0.20;0.20;;;;;;;18.36;76.58;98596.63;7398011;19;20007;-56
2022/12/21 03:49:52;;;;;;;1.25;0.57;;;;;;;18.26;77.08;98601.31;7396615;19;20022;-55
2022/12/21 03:52:22;;;;;;;4.40;1.88;;;;;;;18.10;77.55;98598.41;7396648;19;20007;-55
2022/12/21 03:55:06;;;;;;;5.57;0.65;;;;;;;18.19;77.71;98600.72;7394139;19;20011;-55
2022/12/21 03:57:33;;;;;;;2.10;0.57;;;;;;;18.17;78.19;98611.03;7397106;19;20010;-55
2022/12/21 04:00:01;;;;;;;2.20;0.57;;;;;;;18.25;77.29;98602.63;7393650;19;20017;-55
2022/12/21 04:02:53;;;;;;;0.13;0.13;;;;;;;18.24;77.69;98609.56;7395454;19;20079;-55
2022/12/21 04:05:27;;;;;;;0.43;0.40;;;;;;;18.19;77.86;98622.53;7393486;19;20031;-55
2022/12/21 04:07:54;;;;;;;0.22;0.22;;;;;;;18.20;78.00;98629.66;7393986;19;20006;-56
2022/12/21 04:10:22;;;;;;;0.32;0.32;;;;;;;18.31;77.90;98634.19;7393329;19;20580;-55
2022/12/21 04:12:48;;;;;;;8.20;0.68;;;;;;;18.17;78.90;98634.34;7396071;19;20014;-55
2022/12/21 04:15:18;;;;;;;1.10;0.80;;;;;;;18.11;78.57;98619.66;7393951;19;20011;-55
2022/12/21 04:17:47;;;;;;;0.65;0.43;;;;;;;17.95;79.38;98612.44;7393144;19;20473;-55
2022/12/21 04:20:22;;;;;;;0.20;0.20;;;;;;;17.89;79.33;98541.44;7392503;19;20462;-55
2022/12/21 04:28:28;;;;;;;0.68;0.45;;;;;;;18.12;78.28;98536.66;7392007;19;20010;-55
2022/12/21 04:30:55;;;;;;;14.80;0.30;;;;;;;18.02;77.90;98535.66;7392846;19;20018;-55
2022/12/21 04:33:23;;;;;;;0.10;0.10;;;;;;;17.83;77.89;98543.66;7396108;19;20010;-55
2022/12/21 04:38:37;;;;;;;0.10;0.10;;;;;;;17.88;76.98;98542.75;7392828;19;20502;-55
2022/12/21 04:41:04;;;;;;;0.65;0.57;;;;;;;17.69;77.22;98541.53;7392835;19;20066;-55
2022/12/21 04:43:31;;;;;;;0.32;0.32;;;;;;;17.63;76.84;98540.97;7395030;19;20465;-55
2022/12/21 04:46:05;;;;;;;7.53;0.50;;;;;;;17.67;76.82;98536.44;7392265;19;20398;-55
2022/12/21 04:48:31;;;;;;;0.10;0.10;;;;;;;17.65;76.02;98538.34;7389989;19;20359;-55
2022/12/21 04:51:06;;;;;;;3.33;0.30;;;;;;;17.61;75.73;98543.56;7390291;19;20011;-55
2022/12/21 04:53:32;;;;;;;0.20;0.13;;;;;;;17.66;75.33;98540.59;7395834;19;20029;-55
2022/12/21 04:55:59;;;;;;;5.05;0.40;;;;;;;17.47;75.37;98540.09;7392176;19;20041;-55
2022/12/21 04:58:25;;;;;;;8.85;0.57;;;;;;;17.37;76.02;98545.47;7391549;19;20022;-55
2022/12/21 05:00:51;;;;;;;0.10;0.10;;;;;;;17.45;75.64;98540.63;7392066;19;20007;-55
2022/12/21 05:03:19;;;;;;;0.13;0.13;;;;;;;17.64;74.84;98534.75;7394481;19;20018;-55
2022/12/21 05:05:46;;;;;;;0.10;0.10;;;;;;;17.74;74.35;98541.38;7391034;19;20404;-55
2022/12/21 05:08:12;;;;;;;0.10;0.10;;;;;;;17.77;74.39;98537.44;7391924;19;20015;-55
2022/12/21 05:10:39;;;;;;;0.20;0.20;;;;;;;17.85;73.31;98546.69;7391367;19;20463;-56
2022/12/21 05:13:05;;;;;;;0.10;0.03;;;;;;;17.75;73.84;98537.25;7394663;19;20099;-55
2022/12/21 05:15:38;;;;;;;0.10;0.10;;;;;;;17.80;73.16;98533.50;7389625;19;20078;-55
2022/12/21 05:18:04;;;;;;;0.10;0.00;;;;;;;17.68;72.99;98526.72;7390976;19;20015;-55
2022/12/21 05:20:31;;;;;;;1.20;0.63;;;;;;;17.64;72.96;98520.69;7391457;19;20014;-55
2022/12/21 05:22:57;;;;;;;0.10;0.10;;;;;;;17.63;72.89;98524.81;7393150;19;20014;-55
2022/12/21 05:25:23;;;;;;;0.10;0.10;;;;;;;17.65;72.66;98519.38;7390676;19;20051;-56
2022/12/21 05:27:49;;;;;;;0.10;0.10;;;;;;;17.62;72.73;98523.31;7394655;19;20010;-56
2022/12/21 05:30:16;;;;;;;0.10;0.10;;;;;;;17.58;71.78;98522.16;7390382;19;20430;-55
2022/12/21 05:32:42;;;;;;;0.43;0.20;;;;;;;17.38;71.66;98509.63;7392304;19;20424;-56
2022/12/21 05:35:08;;;;;;;0.30;0.30;;;;;;;17.64;71.29;98506.59;7390968;19;20401;-56
2022/12/21 05:37:34;;;;;;;1.17;0.20;;;;;;;17.75;70.81;98514.72;7390500;19;20042;-55
2022/12/21 05:40:00;;;;;;;0.47;0.20;;;;;;;17.46;70.73;98524.50;7390098;19;20453;-56
2022/12/21 05:42:26;;;;;;;0.38;0.20;;;;;;;17.34;71.47;98518.44;7392480;19;20017;-56
2022/12/21 05:44:52;;;;;;;0.10;0.10;;;;;;;17.09;71.57;98527.84;7389906;19;20537;-56
2022/12/21 05:47:19;;;;;;;2.45;0.20;;;;;;;16.65;72.14;98524.16;7390618;19;20470;-56
2022/12/21 05:49:45;;;;;;;0.10;0.10;;;;;;;16.83;71.86;98530.84;7390227;19;20010;-56
2022/12/21 05:52:11;;;;;;;2.22;1.00;;;;;;;15.80;73.93;98539.91;7391040;19;20035;-56
2022/12/21 05:54:38;;;;;;;0.10;0.00;;;;;;;15.47;75.29;98538.53;7393509;19;20019;-56
2022/12/21 05:57:05;;;;;;;0.10;0.05;;;;;;;15.26;77.05;98542.50;7392406;19;20011;-56
2022/12/21 05:59:31;;;;;;;0.10;0.10;;;;;;;15.07;78.04;98534.22;7390603;19;20018;-56
2022/12/21 06:01:57;;;;;;;7.30;0.55;;;;;;;14.87;79.13;98527.19;7390602;19;20014;-56
2022/12/21 06:04:23;;;;;;;0.10;0.10;;;;;;;14.70;80.44;98528.78;7385758;19;20070;-56
2022/12/21 06:06:50;;;;;;;0.10;0.10;;;;;;;14.75;80.79;98525.13;7389827;19;20021;-56
2022/12/21 06:09:16;;;;;;;0.38;0.38;;;;;;;14.55;82.22;98534.88;7389813;19;20080;-56
2022/12/21 06:11:42;;;;;;;17.85;0.60;;;;;;;14.51;83.19;98533.69;7390510;19;20010;-56
2022/12/21 06:14:08;;;;;;;0.63;0.63;;;;;;;14.58;83.49;98533.78;7389411;19;20082;-56
2022/12/21 06:16:34;;;;;;;0.10;0.10;;;;;;;14.53;84.57;98537.44;7388294;19;20655;-56
2022/12/21 06:19:01;;;;;;;0.47;0.45;;;;;;;14.58;85.96;98533.78;7393358;19;20062;-56
2022/12/21 06:21:28;;;;;;;0.10;0.10;;;;;;;14.55;88.10;98529.28;7394349;19;20371;-56
2022/12/21 06:23:54;;;;;;;2.63;0.32;;;;;;;14.99;87.09;98511.66;7395006;19;20017;-56
2022/12/21 06:26:20;;;;;;;2.00;0.43;;;;;;;15.00;86.52;98506.81;7397677;19;20070;-56
2022/12/21 06:28:48;;;;;;;0.10;0.05;;;;;;;15.07;86.28;98512.50;7396749;19;20026;-56
2022/12/21 06:31:14;;;;;;;6.43;0.30;;;;;;;15.08;86.83;98508.44;7396874;19;20014;-56
2022/12/21 06:33:40;;;;;;;0.10;0.10;;;;;;;15.03;87.34;98512.09;7400207;19;20463;-56
2022/12/21 06:36:08;;;;;;;0.20;0.20;;;;;;;14.98;87.67;98520.63;7395600;19;20020;-56
2022/12/21 06:38:35;;;;;;;0.10;0.10;;;;;;;14.98;88.16;98510.16;7396847;19;20023;-56
2022/12/21 06:41:04;;;;;;;0.10;0.10;;;;;;;15.00;87.99;98518.03;7396187;19;20421;-56
2022/12/21 06:43:32;;;;;;;0.10;0.10;;;;;;;14.88;87.59;98523.06;7398661;19;20017;-56
2022/12/21 06:46:03;;;;;;;8.52;0.35;;;;;;;15.28;86.34;98525.91;7396260;19;20487;-56
2022/12/21 06:48:32;;;;;;;0.20;0.20;;;;;;;15.78;82.74;98522.84;7396237;19;20022;-56
2022/12/21 06:51:00;;;;;;;0.10;0.10;;;;;;;15.97;80.83;98534.66;7396315;19;20036;-56
2022/12/21 06:53:29;;;;;;;0.10;0.10;;;;;;;15.88;81.53;98535.13;7398548;19;20094;-56
2022/12/21 06:56:26;;;;;;;2.92;0.28;;;;;;;16.09;80.86;98524.69;7396592;19;20482;-56
2022/12/21 06:58:54;;;;;;;0.40;0.40;;;;;;;16.29;80.91;98520.41;7392032;19;20018;-56
2022/12/21 07:01:34;;;;;;;0.10;0.10;;;;;;;16.47;80.55;98514.59;7393225;19;20010;-56
2022/12/21 07:04:00;;;;;;;0.10;0.00;;;;;;;16.62;78.90;98500.69;7393633;19;20019;-56
2022/12/21 07:06:29;;;;;;;0.10;0.10;;;;;;;16.48;78.79;98509.72;7395512;19;20150;-56
2022/12/21 07:08:56;;;;;;;0.10;0.10;;;;;;;16.39;78.19;98510.22;7394440;19;20393;-56
2022/12/21 07:11:25;;;;;;;0.10;0.10;;;;;;;16.09;78.55;98519.06;7394253;19;20007;-56
2022/12/21 07:13:52;;;;;;;0.10;0.10;;;;;;;16.00;78.53;98513.94;7394475;19;20069;-56
2022/12/21 07:16:19;;;;;;;0.10;0.00;;;;;;;16.15;78.34;98508.47;7395949;19;20019;-56
2022/12/21 07:18:45;;;;;;;7.13;0.43;;;;;;;16.15;77.59;98508.47;7396381;19;20062;-56
2022/12/21 07:21:14;;;;;;;2.75;0.22;;;;;;;16.03;77.75;98498.78;7394151;19;20680;-56
2022/12/21 07:23:42;;;;;;;0.40;0.38;;;;;;;16.26;77.59;98488.56;7399006;19;20017;-56
2022/12/21 07:26:12;;;;;;;0.30;0.10;;;;;;;16.18;77.69;98492.56;7394399;19;20052;-56
2022/12/21 07:28:38;;;;;;;3.95;0.52;;;;;;;16.13;77.29;98487.84;7394549;19;20022;-56
2022/12/21 07:31:09;;;;;;;1.20;0.55;;;;;;;16.10;77.16;98489.69;7393618;19;20016;-56
2022/12/21 07:33:36;;;;;;;0.10;0.10;;;;;;;16.09;77.33;98488.16;7398874;19;20007;-56
2022/12/21 07:36:04;;;;;;;0.10;0.10;;;;;;;16.00;77.58;98490.72;7394203;19;20018;-56
2022/12/21 07:38:32;;;;;;;0.10;0.10;;;;;;;15.89;77.65;98491.72;7392500;19;20019;-56
2022/12/21 07:40:59;;;;;;;0.10;0.10;;;;;;;16.02;77.44;98502.91;7394148;19;20042;-56
2022/12/21 07:43:26;;;;;;;0.55;0.55;;;;;;;15.90;77.27;98501.63;7397686;19;20011;-56
2022/12/21 07:46:13;;;;;;;0.20;0.20;;;;;;;15.73;77.76;98504.81;7392793;19;20018;-56
2022/12/21 07:48:40;;;;;;;0.10;0.10;;;;;;;15.70;78.55;98500.28;7394302;19;20017;-56
2022/12/21 07:51:07;;;;;;;0.10;0.10;;;;;;;15.78;77.57;98506.78;7393815;19;20341;-56
2022/12/21 07:53:33;;;;;;;0.10;0.10;;;;;;;15.73;77.69;98501.25;7396934;19;20014;-56
2022/12/21 07:56:01;;;;;;;0.10;0.10;;;;;;;15.69;76.73;98509.25;7394506;19;20022;-57
2022/12/21 07:58:27;;;;;;;0.10;0.10;;;;;;;15.68;76.11;98524.59;7393759;19;20098;-56
2022/12/21 08:00:54;;;;;;;0.10;0.10;;;;;;;15.62;75.72;98527.50;7394074;19;20074;-56
2022/12/21 08:03:20;;;;;;;8.40;0.47;;;;;;;15.60;74.38;98523.75;7395962;19;20018;-56
2022/12/21 08:05:46;;;;;;;0.10;0.10;;;;;;;15.68;73.23;98522.53;7393756;19;20018;-56
2022/12/21 08:08:12;;;;;;;1.48;0.40;;;;;;;15.49;73.23;98516.31;7393032;19;20014;-56
2022/12/21 08:10:38;;;;;;;0.10;0.10;;;;;;;15.63;73.39;98514.25;7393728;19;20085;-56
2022/12/21 08:13:05;;;;;;;0.20;0.20;;;;;;;15.67;73.27;98520.28;7394517;19;20352;-56
2022/12/21 08:15:31;;;;;;;0.20;0.20;;;;;;;15.68;73.34;98516.91;7393022;19;20423;-56
2022/12/21 08:17:57;;;;;;;0.17;0.17;;;;;;;15.79;72.93;98507.50;7393817;19;20010;-57
2022/12/21 08:20:23;;;;;;;0.10;0.10;;;;;;;15.92;71.90;98515.88;7391553;19;20006;-56
2022/12/21 08:22:50;;;;;;;0.52;0.38;;;;;;;15.68;72.36;98513.38;7396256;19;20101;-56
2022/12/21 08:25:16;;;;;;;0.90;0.60;;;;;;;15.67;72.42;98520.28;7393350;19;20372;-56
2022/12/21 08:27:42;;;;;;;21.35;0.57;;;;;;;15.82;71.93;98529.66;7395727;19;20355;-56
2022/12/21 08:30:08;;;;;;;0.28;0.10;;;;;;;15.77;71.92;98524.13;7392274;19;20498;-57
2022/12/21 08:32:35;;;;;;;0.20;0.20;;;;;;;15.60;72.06;98530.09;7394307;19;20043;-56
2022/12/21 08:35:01;;;;;;;0.52;0.52;;;;;;;15.60;71.67;98529.34;7392828;19;20106;-56
2022/12/21 08:37:27;;;;;;;3.15;0.52;;;;;;;15.59;71.50;98528.59;7393043;19;20010;-56
2022/12/21 08:39:53;;;;;;;0.63;0.63;;;;;;;15.60;71.05;98535.72;7391739;19;20010;-56
2022/12/21 08:42:19;;;;;;;4.03;0.85;;;;;;;15.48;70.98;98533.69;7390942;19;20084;-56
2022/12/21 08:44:46;;;;;;;0.68;0.68;;;;;;;15.37;71.40;98525.47;7389448;19;20018;-56
2022/12/21 08:47:13;;;;;;;0.35;0.35;;;;;;;15.42;71.26;98530.22;7391385;19;20007;-56
2022/12/21 08:49:39;;;;;;;4.75;0.40;;;;;;;15.59;70.69;98533.47;7391497;19;20006;-56
2022/12/21 08:52:05;;;;;;;0.10;0.10;;;;;;;15.54;70.21;98531.53;7392653;19;20019;-56
2022/12/21 08:54:31;;;;;;;0.10;0.10;;;;;;;15.67;69.93;98517.47;7395553;19;20014;-56
2022/12/21 08:56:57;;;;;;;0.15;0.15;;;;;;;15.78;69.24;98528.47;7394326;19;20014;-56
2022/12/21 08:59:23;;;;;;;0.20;0.20;;;;;;;15.75;69.37;98518.31;7392215;19;20007;-56
2022/12/21 09:01:51;;;;;;;0.25;0.20;;;;;;;15.76;68.74;98536.69;7391353;19;20425;-56
2022/12/21 09:04:18;;;;;;;0.55;0.20;;;;;;;15.50;69.16;98531.09;7390284;19;20340;-56
2022/12/21 09:06:45;;;;;;;0.30;0.30;;;;;;;15.82;68.70;98537.31;7395185;19;20013;-56
2022/12/21 09:09:11;;;;;;;6.65;0.82;;;;;;;15.84;68.48;98526.28;7390777;19;20010;-56
2022/12/21 09:11:37;;;;;;;0.20;0.20;;;;;;;15.86;68.30;98523.69;7394622;19;20010;-56
2022/12/21 09:14:04;;;;;;;0.17;0.17;;;;;;;16.01;67.87;98526.66;7394340;19;20368;-56
2022/12/21 09:16:30;;;;;;;0.90;0.40;;;;;;;16.07;67.28;98529.34;7388197;19;20062;-57
2022/12/21 09:18:56;;;;;;;21.20;1.13;;;;;;;16.08;67.19;98534.44;7390505;19;20029;-56
2022/12/21 09:21:24;;;;;;;9.98;0.88;;;;;;;16.24;67.13;98544.50;7391184;19;20022;-56
2022/12/21 09:23:51;;;;;;;1.02;0.38;;;;;;;16.17;67.05;98548.00;7389350;19;20091;-57
2022/12/21 09:26:17;;;;;;;0.85;0.38;;;;;;;16.22;67.17;98538.69;7391268;19;20021;-56
2022/12/21 09:28:44;;;;;;;6.50;0.65;;;;;;;16.49;66.83;98534.47;7390292;19;20026;-56
2022/12/21 09:31:13;;;;;;;0.20;0.20;;;;;;;16.48;66.73;98535.75;7391370;19;20014;-57
2022/12/21 09:33:40;;;;;;;0.17;0.17;;;;;;;16.60;66.89;98545.47;7392592;19;20022;-56
2022/12/21 09:36:08;;;;;;;0.30;0.28;;;;;;;16.46;67.18;98552.41;7388674;19;20495;-56
2022/12/21 09:38:34;;;;;;;0.30;0.30;;;;;;;16.65;66.77;98552.25;7390123;19;20086;-56
2022/12/21 09:41:05;;;;;;;0.10;0.10;;;;;;;16.42;67.41;98557.63;7393695;19;20014;-57
2022/12/21 09:43:35;;;;;;;0.20;0.20;;;;;;;16.45;68.04;98550.91;7393058;19;20017;-56
2022/12/21 09:46:14;;;;;;;0.10;0.10;;;;;;;16.53;68.17;98551.78;7390357;19;20037;-56
2022/12/21 09:48:49;;;;;;;0.60;0.60;;;;;;;16.34;68.77;98556.03;7389485;19;20041;-56
2022/12/21 09:51:23;;;;;;;0.60;0.60;;;;;;;16.19;69.21;98556.66;7389157;19;20033;-56
2022/12/21 09:53:59;;;;;;;0.45;0.38;;;;;;;16.23;68.80;98557.06;7392943;19;20404;-57
2022/12/21 09:56:27;;;;;;;0.20;0.20;;;;;;;16.33;68.44;98560.91;7391112;19;20010;-56
2022/12/21 09:58:55;;;;;;;2.28;0.90;;;;;;;16.32;68.56;98553.78;7389586;19;20030;-57
2022/12/21 10:01:44;;;;;;;3.35;0.75;;;;;;;16.25;68.96;98557.25;7389339;19;20024;-57
2022/12/21 10:04:10;;;;;;;0.40;0.40;;;;;;;16.26;69.45;98550.34;7388468;19;20015;-56
2022/12/21 10:06:58;;;;;;;0.75;0.17;;;;;;;16.15;69.54;98545.00;7389244;19;20007;-57
2022/12/21 10:09:33;;;;;;;1.00;0.32;;;;;;;15.96;70.22;98557.69;7389953;19;20014;-57
2022/12/21 10:12:02;;;;;;;0.38;0.38;;;;;;;16.17;70.33;98548.00;7390947;19;20094;-57
2022/12/21 10:14:47;;;;;;;0.20;0.20;;;;;;;16.58;70.70;98548.06;7389625;19;20015;-56
2022/12/21 10:17:40;;;;;;;5.00;0.63;;;;;;;16.88;69.92;98541.19;7387874;19;20022;-57
2022/12/21 10:20:22;;;;;;;0.20;0.20;;;;;;;17.09;70.35;98545.47;7389288;19;20078;-56
2022/12/21 10:22:54;;;;;;;3.67;0.43;;;;;;;17.29;70.31;98546.72;7392695;19;20010;-57
2022/12/21 10:25:27;;;;;;;0.25;0.22;;;;;;;17.22;71.45;98550.25;7388932;19;20007;-56
2022/12/21 10:27:53;;;;;;;0.45;0.45;;;;;;;17.34;71.42;98545.84;7392561;19;20019;-57
2022/12/21 10:30:20;;;;;;;5.07;1.55;;;;;;;17.40;71.67;98547.19;7387864;19;20027;-56
2022/12/21 10:32:48;;;;;;;2.65;0.38;;;;;;;17.61;71.81;98544.31;7391696;19;20082;-56
2022/12/21 10:35:36;;;;;;;0.17;0.10;;;;;;;17.77;71.86;98534.63;7390135;19;20514;-57
2022/12/21 10:38:13;;;;;;;0.20;0.20;;;;;;;17.84;71.40;98533.16;7386881;19;20014;-56
2022/12/21 10:40:43;;;;;;;0.50;0.47;;;;;;;17.64;71.97;98537.59;7388931;19;20019;-56
2022/12/21 10:43:12;;;;;;;0.10;0.10;;;;;;;17.78;72.36;98547.41;7391272;19;20039;-57
2022/12/21 10:45:38;;;;;;;3.95;1.58;;;;;;;17.79;72.50;98540.47;7388153;19;20015;-56
2022/12/21 10:48:04;;;;;;;0.10;0.10;;;;;;;18.01;72.83;98541.84;7387608;19;20485;-57
2022/12/21 10:50:34;;;;;;;0.30;0.20;;;;;;;18.27;71.98;98537.97;7391393;19;20003;-56
2022/12/21 10:53:18;;;;;;;0.10;0.10;;;;;;;18.30;71.32;98531.97;7390353;19;20002;-57
2022/12/21 10:55:45;;;;;;;0.10;0.00;;;;;;;18.11;71.27;98535.13;7390569;19;20013;-57
2022/12/21 10:58:18;;;;;;;0.10;0.10;;;;;;;18.15;70.85;98535.50;7390867;19;20018;-57
2022/12/21 11:00:56;;;;;;;4.25;0.45;;;;;;;18.25;70.36;98543.44;7387825;19;20010;-57
2022/12/21 11:03:34;;;;;;;0.20;0.20;;;;;;;18.57;69.89;98540.88;7390761;19;20042;-57
2022/12/21 11:06:18;;;;;;;0.65;0.10;;;;;;;18.52;69.95;98530.53;7395446;19;20018;-56
2022/12/21 11:08:45;;;;;;;0.10;0.10;;;;;;;18.32;70.61;98537.06;7394797;19;20346;-57
2022/12/21 11:11:28;;;;;;;0.10;0.10;;;;;;;18.18;71.96;98531.59;7394199;19;20357;-57
2022/12/21 11:13:57;;;;;;;0.93;0.50;;;;;;;18.21;72.42;98537.41;7394846;19;20070;-57
2022/12/21 11:16:28;;;;;;;0.10;0.00;;;;;;;18.17;73.42;98527.25;7395661;19;20018;-56
2022/12/21 11:18:58;;;;;;;0.10;0.10;;;;;;;18.41;73.57;98523.16;7395642;19;20014;-56
2022/12/21 11:21:37;;;;;;;6.70;0.40;;;;;;;18.56;74.73;98526.03;7395075;19;20010;-56
2022/12/21 11:24:11;;;;;;;10.18;0.43;;;;;;;18.74;74.76;98535.44;7393277;19;20463;-56
2022/12/21 11:26:45;;;;;;;0.10;0.00;;;;;;;19.05;74.51;98527.72;7396307;19;20021;-56
2022/12/21 11:29:29;;;;;;;0.10;0.00;;;;;;;19.13;74.27;98520.75;7394498;19;20035;-56
2022/12/21 11:32:01;;;;;;;0.10;0.10;;;;;;;19.23;74.43;98513.19;7394964;19;20469;-56
2022/12/21 11:34:41;;;;;;;0.20;0.00;;;;;;;19.27;74.56;98510.00;7392710;19;20035;-56
2022/12/21 11:37:36;;;;;;;0.10;0.00;;;;;;;19.34;74.77;98504.34;7394995;19;20015;-56
2022/12/21 11:40:11;;;;;;;1.20;0.25;;;;;;;19.10;74.39;98507.75;7394071;19;20006;-56
2022/12/21 11:43:02;;;;;;;0.10;0.00;;;;;;;18.41;76.06;98505.50;7396286;19;20022;-57
2022/12/21 11:45:28;;;;;;;0.17;0.00;;;;;;;17.92;77.98;98495.25;7394553;19;20014;-56
2022/12/21 11:48:15;;;;;;;0.10;0.00;;;;;;;17.23;80.83;98498.31;7393747;19;20015;-56
2022/12/21 11:50:59;;;;;;;0.10;0.10;;;;;;;17.46;81.21;98493.53;7394069;19;20015;-56
2022/12/21 11:53:55;;;;;;;1.23;0.75;;;;;;;17.67;80.09;98485.03;7398077;19;20034;-56
2022/12/21 11:56:27;;;;;;;0.10;0.10;;;;;;;17.69;79.93;98486.00;7395339;19;20010;-56
2022/12/21 11:59:20;;;;;;;0.10;0.10;;;;;;;17.38;80.77;98475.88;7394303;19;20015;-56
2022/12/21 12:02:10;;;;;;;0.95;0.40;;;;;;;17.08;81.75;98481.34;7393906;19;20011;-56
2022/12/21 12:04:57;;;;;;;0.10;0.08;;;;;;;16.92;82.63;98468.47;7391458;19;20015;-56